createdAt,value
2023-02-04T00:00:29.946Z,1.437500
2023-02-04T00:05:30.300Z,1.510000
2023-02-04T00:10:21.249Z,1.600000
2023-02-04T00:15:24.356Z,1.600000
2023-02-04T00:20:30.253Z,1.566667
2023-02-04T00:25:18.832Z,1.490000
2023-02-04T00:30:22.159Z,1.400000
2023-02-04T00:35:25.173Z,1.292308
2023-02-04T00:40:30.277Z,1.200000
2023-02-04T00:45:19.354Z,1.281818
2023-02-04T00:50:22.453Z,1.300000
2023-02-04T00:55:25.588Z,1.372727
2023-02-04T01:00:30.544Z,1.400000
2023-02-04T01:05:19.712Z,1.328571
2023-02-04T01:10:22.915Z,1.209091
2023-02-04T01:15:26.037Z,1.100000
2023-02-04T01:20:29.627Z,1.170000
2023-02-04T01:25:20.565Z,1.318182
2023-02-04T01:30:23.684Z,1.458333
2023-02-04T01:35:26.730Z,1.500000
2023-02-04T01:40:30.913Z,1.590909
2023-02-04T01:45:20.940Z,1.690909
2023-02-04T01:50:24.069Z,1.700000
2023-02-04T01:55:27.232Z,1.700000
2023-02-04T02:00:30.763Z,1.770000
2023-02-04T02:05:21.347Z,1.800000
2023-02-04T02:10:24.443Z,1.845455
2023-02-04T02:15:27.543Z,1.930000
2023-02-04T02:20:31.062Z,2.058333
2023-02-04T02:25:22.120Z,2.161538
2023-02-04T02:30:25.258Z,2.200000
2023-02-04T02:35:30.299Z,2.266667
2023-02-04T02:40:19.473Z,2.330000
2023-02-04T02:45:18.694Z,2.400000
2023-02-04T02:50:25.618Z,2.480000
2023-02-04T02:55:18.775Z,2.500000
2023-02-04T03:00:19.838Z,2.500000
2023-02-04T03:05:22.906Z,2.536364
2023-02-04T03:10:18.618Z,2.500000
2023-02-04T03:15:18.712Z,2.500000
2023-02-04T03:20:20.498Z,2.550000
2023-02-04T03:25:18.775Z,2.507692
2023-02-04T03:30:18.749Z,2.500000
2023-02-04T03:35:30.913Z,2.500000
2023-02-04T03:40:21.054Z,2.500000
2023-02-04T03:45:19.079Z,2.500000
2023-02-04T03:50:27.275Z,2.500000
2023-02-04T03:55:19.149Z,2.500000
2023-02-04T04:00:21.449Z,2.500000
2023-02-04T04:05:19.204Z,2.500000
2023-02-04T04:10:19.540Z,2.500000
2023-02-04T04:15:18.809Z,2.500000
2023-02-04T04:20:21.838Z,2.425000
2023-02-04T04:25:25.408Z,2.350000
2023-02-04T04:30:19.185Z,2.300000
2023-02-04T04:35:19.601Z,2.300000
2023-02-04T04:40:19.540Z,2.210000
2023-02-04T04:45:19.673Z,2.200000
2023-02-04T04:50:32.666Z,2.163636
2023-02-04T04:55:19.977Z,2.100000
2023-02-04T05:00:19.736Z,2.044444
2023-02-04T05:05:19.741Z,1.983333
2023-02-04T05:10:19.751Z,1.900000
2023-02-04T05:15:20.443Z,1.872727
2023-02-04T05:20:19.590Z,1.800000
2023-02-04T05:25:26.974Z,1.800000
2023-02-04T05:30:19.709Z,1.800000
2023-02-04T05:35:21.126Z,1.808333
2023-02-04T05:40:20.092Z,1.911111
2023-02-04T05:45:20.139Z,2.020000
2023-02-04T05:50:20.074Z,2.100000
2023-02-04T05:55:21.579Z,2.100000
2023-02-04T06:00:20.180Z,2.100000
2023-02-04T06:05:20.124Z,2.100000
2023-02-04T06:10:20.105Z,2.100000
2023-02-04T06:15:21.988Z,2.172727
2023-02-04T06:20:25.091Z,2.200000
2023-02-04T06:25:20.166Z,2.133333
2023-02-04T06:30:20.041Z,2.091667
2023-02-04T06:35:22.856Z,2.000000
2023-02-04T06:40:20.642Z,2.000000
2023-02-04T06:45:20.463Z,1.907692
2023-02-04T06:50:20.557Z,1.900000
2023-02-04T06:55:23.158Z,1.900000
2023-02-04T07:00:20.541Z,1.900000
2023-02-04T07:05:20.473Z,1.955556
2023-02-04T07:10:20.472Z,2.000000
2023-02-04T07:15:20.528Z,2.000000
2023-02-04T07:20:26.670Z,2.000000
2023-02-04T07:25:20.585Z,2.000000
2023-02-04T07:30:21.193Z,2.000000
2023-02-04T07:35:20.602Z,1.936364
2023-02-04T07:40:20.826Z,1.900000
2023-02-04T07:45:20.944Z,1.900000
2023-02-04T07:50:21.673Z,1.954545
2023-02-04T07:55:21.172Z,2.000000
2023-02-04T08:00:20.952Z,2.000000
2023-02-04T08:05:20.970Z,2.038462
2023-02-04T08:10:22.002Z,2.180000
2023-02-04T08:15:20.878Z,2.300000
2023-02-04T08:20:20.896Z,2.300000
2023-02-04T08:25:20.932Z,2.300000
2023-02-04T08:30:22.843Z,2.350000
2023-02-04T08:35:20.946Z,2.400000
2023-02-04T08:40:21.417Z,2.400000
2023-02-04T08:45:21.374Z,2.400000
2023-02-04T08:50:23.231Z,2.400000
2023-02-04T08:55:21.447Z,2.400000
2023-02-04T09:00:21.469Z,2.418182
2023-02-04T09:05:21.552Z,2.500000
2023-02-04T09:10:23.810Z,2.554545
2023-02-04T09:15:26.848Z,2.650000
2023-02-04T09:20:21.452Z,2.763636
2023-02-04T09:25:21.424Z,2.881818
2023-02-04T09:30:24.313Z,3.000000
2023-02-04T09:35:21.451Z,3.054545
2023-02-04T09:40:21.767Z,3.100000
2023-02-04T09:45:21.812Z,3.190909
2023-02-04T09:50:24.787Z,3.200000
2023-02-04T09:55:22.003Z,3.288889
2023-02-04T10:00:21.984Z,3.360000
2023-02-04T10:05:22.783Z,3.400000
2023-02-04T10:10:21.845Z,3.400000
2023-02-04T10:15:21.848Z,3.410000
2023-02-04T10:20:21.859Z,3.500000
2023-02-04T10:25:22.496Z,3.538462
2023-02-04T10:30:21.818Z,3.633333
2023-02-04T10:35:21.893Z,3.775000
2023-02-04T10:40:22.397Z,3.918182
2023-02-04T10:45:22.927Z,4.115385
2023-02-04T10:50:22.208Z,4.281818
2023-02-04T10:55:22.228Z,4.375000
2023-02-04T11:00:22.262Z,4.300000
2023-02-04T11:05:23.441Z,4.300000
2023-02-04T11:10:22.252Z,4.300000
2023-02-04T11:15:22.598Z,4.263636
2023-02-04T11:20:22.304Z,4.327273
2023-02-04T11:25:23.994Z,4.444444
2023-02-04T11:30:22.386Z,4.583333
2023-02-04T11:35:22.276Z,4.610000
2023-02-04T11:40:22.656Z,4.700000
2023-02-04T11:45:24.382Z,4.707692
2023-02-04T11:50:22.719Z,4.800000
2023-02-04T11:55:22.956Z,4.808333
2023-02-04T12:00:22.849Z,4.900000
2023-02-04T12:05:24.834Z,4.863636
2023-02-04T12:10:22.791Z,4.760000
2023-02-04T12:15:19.000Z,4.658333
2023-02-04T12:20:22.738Z,4.600000
2023-02-04T12:25:25.506Z,4.600000
2023-02-04T12:30:22.794Z,4.600000
2023-02-04T12:35:19.655Z,4.533333
2023-02-04T12:40:23.192Z,4.500000
2023-02-04T12:45:26.001Z,4.430000
2023-02-04T12:50:23.269Z,4.381818
2023-02-04T12:55:20.135Z,4.300000
2023-02-04T13:00:23.359Z,4.227273
2023-02-04T13:05:23.130Z,4.166667
2023-02-04T13:10:23.180Z,4.100000
2023-02-04T13:15:23.165Z,4.000000
2023-02-04T13:20:24.051Z,4.000000
2023-02-04T13:25:23.223Z,3.908333
2023-02-04T13:30:23.331Z,3.900000
2023-02-04T13:35:23.275Z,3.900000
2023-02-04T13:40:24.275Z,3.900000
2023-02-04T13:45:27.432Z,3.854545
2023-02-04T13:50:23.703Z,3.800000
2023-02-04T13:55:23.553Z,3.790909
2023-02-04T14:00:24.656Z,3.700000
2023-02-04T14:05:27.842Z,3.700000
2023-02-04T14:10:18.831Z,3.700000
2023-02-04T14:15:23.741Z,3.633333
2023-02-04T14:20:25.118Z,3.600000
2023-02-04T14:25:23.802Z,3.530000
2023-02-04T14:30:19.577Z,3.420000
2023-02-04T14:35:22.534Z,3.275000
2023-02-04T14:40:25.787Z,3.157143
2023-02-04T14:45:25.477Z,3.100000
2023-02-04T14:50:19.910Z,3.020000
2023-02-04T14:55:24.128Z,3.000000
2023-02-04T15:00:26.047Z,2.910000
2023-02-04T15:05:24.210Z,2.861538
2023-02-04T15:10:20.222Z,2.783333
2023-02-04T15:15:24.248Z,2.700000
2023-02-04T15:20:26.561Z,2.600000
2023-02-04T15:25:24.091Z,2.500000
2023-02-04T15:30:20.922Z,2.477778
2023-02-04T15:35:24.172Z,2.400000
2023-02-04T15:40:27.219Z,2.355556
2023-02-04T15:45:24.659Z,2.284615
2023-02-04T15:50:21.327Z,2.200000
2023-02-04T15:55:24.581Z,2.109091
2023-02-04T16:00:27.758Z,2.050000
2023-02-04T16:05:24.745Z,2.000000
2023-02-04T16:10:21.626Z,2.000000
2023-02-04T16:15:24.874Z,1.933333
2023-02-04T16:20:24.533Z,1.900000
2023-02-04T16:25:19.150Z,1.840000
2023-02-04T16:30:22.245Z,1.800000
2023-02-04T16:35:25.436Z,1.781818
2023-02-04T16:40:25.053Z,1.700000
2023-02-04T16:45:19.596Z,1.700000
2023-02-04T16:50:25.306Z,1.700000
2023-02-04T16:55:25.867Z,1.670000
2023-02-04T17:00:25.182Z,1.600000
2023-02-04T17:05:19.898Z,1.600000
2023-02-04T17:10:23.111Z,1.545455
2023-02-04T17:15:26.238Z,1.500000
2023-02-04T17:20:25.126Z,1.500000
2023-02-04T17:25:20.880Z,1.491667
2023-02-04T17:30:25.228Z,1.400000
2023-02-04T17:35:27.302Z,1.350000
2023-02-04T17:40:27.040Z,1.272727
2023-02-04T17:45:21.072Z,1.200000
2023-02-04T17:50:25.557Z,1.200000
2023-02-04T17:55:27.490Z,1.138462
2023-02-04T18:00:25.633Z,1.100000
2023-02-04T18:05:21.640Z,1.100000
2023-02-04T18:10:25.605Z,1.000000
2023-02-04T18:15:27.927Z,1.000000
2023-02-04T18:20:18.782Z,0.936364
2023-02-04T18:25:22.335Z,0.900000
2023-02-04T18:30:25.710Z,0.900000
2023-02-04T18:35:28.614Z,0.833333
2023-02-04T18:40:19.637Z,0.800000
2023-02-04T18:45:22.775Z,0.800000
2023-02-04T18:50:26.237Z,0.800000
2023-02-04T18:55:29.209Z,0.750000
2023-02-04T19:00:20.035Z,0.700000
2023-02-04T19:05:26.086Z,0.700000
2023-02-04T19:10:26.332Z,0.700000
2023-02-04T19:15:26.130Z,0.700000
2023-02-04T19:20:20.440Z,0.700000
2023-02-04T19:25:26.160Z,0.700000
2023-02-04T19:30:27.120Z,0.700000
2023-02-04T19:35:30.338Z,0.700000
2023-02-04T19:40:21.198Z,0.700000
2023-02-04T19:45:26.667Z,0.646154
2023-02-04T19:50:27.541Z,0.600000
2023-02-04T19:55:26.603Z,0.600000
2023-02-04T20:00:21.688Z,0.600000
2023-02-04T20:05:26.569Z,0.672727
2023-02-04T20:10:28.079Z,0.700000
2023-02-04T20:15:18.917Z,0.690000
2023-02-04T20:20:22.056Z,0.683333
2023-02-04T20:25:26.628Z,0.700000
2023-02-04T20:30:28.959Z,0.700000
2023-02-04T20:35:19.867Z,0.700000
2023-02-04T20:40:23.042Z,0.700000
2023-02-04T20:45:26.107Z,0.700000
2023-02-04T20:50:29.349Z,0.700000
2023-02-04T21:00:23.527Z,0.625000
2023-02-04T21:05:27.106Z,0.600000
2023-02-04T21:15:20.752Z,0.700000
2023-02-04T21:20:23.806Z,0.700000
2023-02-04T21:25:27.483Z,0.700000
2023-02-04T21:30:30.472Z,0.700000
2023-02-04T21:35:21.517Z,0.700000
2023-02-04T21:40:27.555Z,0.700000
2023-02-04T21:45:27.740Z,0.700000
2023-02-04T21:50:18.745Z,0.700000
2023-02-04T21:55:22.093Z,0.700000
2023-02-04T22:00:25.102Z,0.700000
2023-02-04T22:05:28.138Z,0.700000
2023-02-04T22:10:19.098Z,0.700000
2023-02-04T22:15:22.308Z,0.700000
2023-02-04T22:20:27.577Z,0.600000
2023-02-04T22:25:29.084Z,0.600000
2023-02-04T22:30:19.913Z,0.525000
2023-02-04T22:35:22.895Z,0.500000
2023-02-04T22:40:28.032Z,0.450000
2023-02-04T22:45:29.270Z,0.400000
2023-02-04T22:50:20.269Z,0.318182
2023-02-04T22:55:23.365Z,0.223077
2023-02-04T23:00:28.007Z,0.133333
2023-02-04T23:05:29.638Z,0.081818
2023-02-04T23:10:20.616Z,0.000000
2023-02-04T23:15:23.742Z,-0.072727
2023-02-04T23:20:28.059Z,-0.100000
2023-02-04T23:25:30.314Z,-0.200000
2023-02-04T23:30:23.019Z,-0.272727
2023-02-04T23:35:24.392Z,-0.350000
2023-02-04T23:40:28.560Z,-0.450000
2023-02-04T23:45:30.904Z,-0.500000
2023-02-04T23:50:21.692Z,-0.500000
2023-02-04T23:55:24.936Z,-0.500000
